Latest Weather Observations for Gold Coast Seaway

IDQ60801

Issued at 2:35 pm EST Tuesday 16 September 2014 (issued every 30 minutes, with the page automatically refreshed every 10 minutes)

About weather observations | Map of weather stations | Latest weather observations for QLD | Other Formats
Station Details ID: 040764 Name: GOLD COAST SEAWAY Lat: -27.94 Lon: 153.43 Height: 2.98 m
Data from the previous 72 hours. | See also: Recent months at Gold Coast Seaway
Date/Time
EST
Temp
°C
App
Temp
°C
Dew
Point
Rel
Hum
%
Delta-T
°C
Wind Press
QNH
hPa
Press
MSL
hPa
Rain
since 9 am
mm
Dir
 
Spd
km/h
Gust
km/h
Spd
kts
Gust
kts
16/02:30pm 22.9 19.2 17.4 71 3.4 N 33 37 18 20 1011.1 1011.1 0.0
16/02:00pm 23.6 20.0 17.6 69 3.7 NNE 33 37 18 20 1011.5 1011.5 0.0
16/01:30pm 25.3 21.3 14.1 50 6.6 N 28 39 15 21 1012.0 1012.0 0.0
16/01:00pm 25.4 20.4 10.8 40 8.2 N 28 39 15 21 1012.5 1012.5 0.0
16/12:30pm 25.3 20.3 11.1 41 8.0 N 28 32 15 17 1013.1 1013.1 0.0
16/12:00pm 24.1 20.7 14.8 56 5.5 NNE 26 32 14 17 1013.8 1013.8 0.0
16/11:30am 23.6 20.5 15.6 61 4.8 N 26 28 14 15 1014.4 1014.4 0.0
16/11:00am 23.6 21.4 15.9 62 4.7 NNE 22 28 12 15 1015.0 1015.0 0.0
16/10:30am 22.7 19.3 13.7 56 5.2 N 24 30 13 16 1015.4 1015.4 0.0
16/10:00am 23.0 19.8 11.1 47 6.6 NNW 19 28 10 15 1016.0 1016.0 0.0
16/09:30am 22.5 20.1 13.8 58 5.1 N 19 26 10 14 1016.6 1016.6 0.0
16/09:00am 21.0 19.4 15.1 69 3.5 N 17 22 9 12 1016.6 1016.6 3.8
16/08:30am 19.9 18.0 14.3 70 3.2 N 17 22 9 12 1016.8 1016.8 3.8
16/08:00am 18.8 17.3 14.3 75 2.6 NNW 15 24 8 13 1016.9 1016.9 3.8
16/07:30am 17.9 16.5 14.4 80 2.0 NNW 15 20 8 11 1016.8 1016.8 3.8
16/07:00am 17.1 15.8 14.7 86 1.4 NNW 15 20 8 11 1016.5 1016.5 3.8
16/06:30am 16.4 15.2 15.1 92 0.8 NNW 15 20 8 11 1016.3 1016.3 3.8
16/06:00am 16.0 15.8 15.7 98 0.2 NW 11 15 6 8 1016.3 1016.3 3.8
16/05:30am 16.0 15.7 15.4 96 0.3 NW 11 15 6 8 1016.0 1016.0 3.8
16/05:00am 15.7 15.4 15.5 99 0.1 NW 11 11 6 6 1015.8 1015.8 3.8
16/04:30am 15.4 15.4 15.2 99 0.1 WNW 9 13 5 7 1015.7 1015.7 3.8
16/04:00am 15.6 15.7 15.4 99 0.1 WNW 9 11 5 6 1015.5 1015.5 3.6
16/03:30am 15.6 15.3 15.4 99 0.1 WNW 11 11 6 6 1015.4 1015.4 3.6
16/03:00am 15.4 15.8 15.2 99 0.1 NW 7 9 4 5 1015.3 1015.3 3.6
16/02:30am 15.8 15.9 15.6 99 0.1 NNW 9 11 5 6 1015.2 1015.2 3.6
16/02:00am 15.6 16.2 15.4 99 0.1 SSW 6 9 3 5 1015.5 1015.5 3.6
16/01:30am 15.6 16.0 15.4 99 0.1 SSW 7 7 4 4 1015.8 1015.8 3.6
16/01:00am 15.8 15.9 15.6 99 0.1 SSW 9 11 5 6 1015.9 1015.9 3.6
16/12:30am 16.0 16.2 15.8 99 0.1 SSW 9 9 5 5 1016.1 1016.1 3.6
16/12:00am 16.0 16.6 15.8 99 0.1 W 7 9 4 5 1016.2 1016.2 3.6
 
Date/Time
EST
Temp
°C
App
Temp
°C
Dew
Point
Rel
Hum
%
Delta-T
°C
Wind Press
QNH
hPa
Press
MSL
hPa
Rain
since 9 am
mm
Dir
 
Spd
km/h
Gust
km/h
Spd
kts
Gust
kts
15/11:30pm 16.5 17.3 16.3 99 0.1 W 7 9 4 5 1016.4 1016.4 3.6
15/11:00pm 16.3 16.9 15.3 94 0.6 W 6 7 3 4 1016.4 1016.4 3.6
15/10:30pm 17.0 17.7 16.0 94 0.6 W 7 9 4 5 1016.4 1016.4 3.6
15/10:00pm 17.2 17.6 15.4 89 1.0 W 7 9 4 5 1016.5 1016.5 3.6
15/09:30pm 17.8 17.9 15.4 86 1.4 NNW 9 13 5 7 1016.4 1016.4 3.6
15/09:00pm 18.3 17.9 15.2 82 1.8 N 11 15 6 8 1016.5 1016.5 3.6
15/08:30pm 18.5 17.8 15.4 82 1.8 NNW 13 17 7 9 1016.4 1016.4 3.6
15/08:00pm 18.5 17.9 15.7 84 1.7 WNW 13 15 7 8 1016.3 1016.3 3.6
15/07:30pm 19.0 17.7 15.9 82 1.8 NNW 17 24 9 13 1016.1 1016.1 3.6
15/07:00pm 19.6 17.2 16.4 82 1.9 N 24 32 13 17 1015.8 1015.8 3.6
15/06:30pm 19.3 19.4 15.4 78 2.3 N 9 22 5 12 1015.6 1015.6 3.6
15/06:00pm 18.9 14.2 14.4 75 2.6 E 32 37 17 20 1014.6 1014.6 3.6
15/05:49pm 18.9 15.2 15.9 83 1.8 ENE 30 41 16 22 1014.3 1014.3 3.6
15/05:30pm 19.1 17.8 15.8 81 2.0 SSW 17 24 9 13 1016.3 1016.3 1.2
15/05:00pm 20.6 17.2 15.8 74 2.9 N 28 37 15 20 1015.5 1015.5 0.2
15/04:30pm 20.9 16.0 15.2 70 3.4 N 35 43 19 23 1014.2 1014.2 0.2
15/04:00pm 21.2 16.4 14.6 66 3.9 NNE 33 39 18 21 1013.9 1013.9 0.2
15/03:30pm 22.0 17.0 15.1 65 4.1 NNE 35 41 19 22 1013.9 1013.9 0.2
15/03:00pm 21.8 17.1 15.9 69 3.5 NNE 35 41 19 22 1013.8 1013.8 0.2
15/02:30pm 23.1 18.9 15.7 63 4.5 NNE 32 37 17 20 1014.2 1014.2 0.2
15/02:00pm 24.1 20.0 14.8 56 5.5 NNE 30 33 16 18 1014.6 1014.6 0.2
15/01:30pm 24.2 19.9 13.1 50 6.4 NNE 28 32 15 17 1015.0 1015.0 0.2
15/01:00pm 24.2 20.3 13.4 51 6.3 NNE 26 30 14 16 1015.4 1015.4 0.2
15/12:30pm 25.2 22.1 14.6 51 6.3 NNE 24 35 13 19 1016.0 1016.0 0.2
15/12:00pm 25.8 23.5 14.6 50 6.7 N 20 26 11 14 1016.4 1016.4 0.2
15/11:30am 24.9 21.8 11.5 43 7.6 N 19 28 10 15 1017.0 1017.0 0.2
15/11:00am 24.0 20.3 10.3 42 7.5 N 20 26 11 14 1017.5 1017.5 0.2
15/10:30am 23.2 19.6 10.6 45 7.0 N 20 26 11 14 1018.1 1018.1 0.0
15/10:00am 22.5 18.6 9.6 44 7.0 NW 20 28 11 15 1018.5 1018.5 0.0
15/09:30am 21.6 17.0 9.5 46 6.5 NW 24 32 13 17 1018.8 1018.8 0.0
15/09:00am 20.8 18.6 12.0 57 4.9 NW 15 22 8 12 1019.1 1019.1 0.2
15/08:30am 20.2 18.0 12.2 60 4.5 NW 15 20 8 11 1019.3 1019.3 0.2
15/08:00am 19.2 17.2 12.7 66 3.6 N 15 19 8 10 1019.2 1019.2 0.2
15/07:30am 18.0 16.8 12.9 72 2.9 NW 11 13 6 7 1019.2 1019.2 0.2
15/07:00am 16.8 15.2 12.7 77 2.3 WNW 13 13 7 7 1019.2 1019.2 0.2
15/06:30am 15.8 14.7 13.1 84 1.5 NW 11 13 6 7 1018.8 1018.8 0.2
15/06:00am 14.8 14.1 13.2 90 0.9 NW 9 13 5 7 1018.5 1018.5 0.2
15/05:30am 14.2 13.2 12.4 89 1.0 WNW 9 11 5 6 1018.2 1018.2 0.2
15/05:00am 14.9 13.8 13.1 89 1.0 NW 11 13 6 7 1018.2 1018.2 0.2
15/04:30am 14.9 14.6 13.3 90 0.9 NW 7 11 4 6 1018.0 1018.0 0.2
15/04:00am 15.3 14.6 13.1 87 1.2 NW 9 13 5 7 1017.7 1017.7 0.2
15/03:30am 15.1 14.0 13.0 87 1.2 NW 11 13 6 7 1018.0 1018.0 0.2
15/03:00am 15.3 14.2 13.1 87 1.2 NW 11 13 6 7 1017.9 1017.9 0.2
15/02:30am 14.8 14.3 12.5 86 1.3 NW 7 11 4 6 1018.2 1018.2 0.2
15/02:00am 15.2 14.3 12.7 85 1.4 WNW 9 11 5 6 1018.5 1018.5 0.2
15/01:30am 15.3 14.5 12.8 85 1.4 WNW 9 11 5 6 1018.8 1018.8 0.2
15/01:00am 15.6 14.9 13.1 85 1.4 WNW 9 11 5 6 1019.0 1019.0 0.2
15/12:30am 15.8 14.6 12.7 82 1.7 WNW 11 13 6 7 1019.2 1019.2 0.2
15/12:00am 16.0 15.3 13.1 83 1.6 W 9 11 5 6 1019.4 1019.4 0.2
 
Date/Time
EST
Temp
°C
App
Temp
°C
Dew
Point
Rel
Hum
%
Delta-T
°C
Wind Press
QNH
hPa
Press
MSL
hPa
Rain
since 9 am
mm
Dir
 
Spd
km/h
Gust
km/h
Spd
kts
Gust
kts
14/11:30pm 16.5 15.0 13.0 80 1.9 WNW 13 13 7 7 1019.7 1019.7 0.2
14/11:00pm 16.9 15.4 13.0 78 2.2 WNW 13 13 7 7 1019.8 1019.8 0.2
14/10:30pm 16.7 15.6 13.0 79 2.1 WNW 11 13 6 7 1020.0 1020.0 0.2
14/10:00pm 16.9 15.8 13.0 78 2.2 WNW 11 11 6 6 1020.0 1020.0 0.2
14/09:30pm 17.0 15.9 13.1 78 2.2 WNW 11 13 6 7 1020.1 1020.1 0.2
14/09:00pm 17.5 16.4 13.2 76 2.4 WNW 11 13 6 7 1020.0 1020.0 0.2
14/08:30pm 18.0 17.0 13.3 74 2.7 NW 11 13 6 7 1020.0 1020.0 0.2
14/08:00pm 18.4 16.9 13.0 71 3.0 NNW 13 15 7 8 1019.9 1019.9 0.2
14/07:30pm 19.1 16.4 12.8 67 3.5 N 19 22 10 12 1019.8 1019.8 0.2
14/07:00pm 19.0 16.6 12.7 67 3.5 NNE 17 20 9 11 1019.7 1019.7 0.2
14/06:30pm 19.0 16.6 12.7 67 3.5 NNE 17 19 9 10 1019.5 1019.5 0.2
14/06:00pm 19.1 17.1 12.8 67 3.5 NNE 15 19 8 10 1019.3 1019.3 0.2
14/05:30pm 19.5 17.1 12.7 65 3.8 NE 17 20 9 11 1019.3 1019.3 0.2
14/05:00pm 20.2 17.8 12.7 62 4.2 NE 17 19 9 10 1019.2 1019.2 0.2
14/04:30pm 20.8 18.4 12.8 60 4.5 NE 17 19 9 10 1019.2 1019.2 0.2
14/04:00pm 21.2 18.7 12.3 57 5.0 NE 17 20 9 11 1019.1 1019.1 0.2
14/03:30pm 21.7 19.4 13.1 58 4.9 NE 17 19 9 10 1019.1 1019.1 0.2
14/03:00pm 22.3 20.3 13.9 59 4.9 ENE 17 20 9 11 1019.4 1019.4 0.2
14/02:30pm 22.0 19.2 12.5 54 5.4 NE 19 24 10 13 1019.5 1019.5 0.2
14/02:00pm 22.2 19.2 12.5 54 5.5 ENE 20 24 11 13 1019.6 1019.6 0.2
14/01:30pm 22.4 19.8 13.2 56 5.3 ENE 19 24 10 13 1019.9 1019.9 0.2
14/01:00pm 22.6 20.1 13.4 56 5.3 ENE 19 22 10 12 1020.4 1020.4 0.2
14/12:30pm 22.3 20.5 14.4 61 4.6 ENE 17 20 9 11 1020.8 1020.8 0.2
14/12:00pm 22.4 20.4 14.0 59 4.9 ENE 17 19 9 10 1021.3 1021.3 0.2
14/11:30am 22.0 20.6 13.4 58 5.0 ENE 13 17 7 9 1021.8 1021.8 0.2
14/11:00am 22.2 21.5 14.3 61 4.6 E 11 13 6 7 1022.2 1022.2 0.2
14/10:30am 21.8 21.4 14.2 62 4.4 ESE 9 11 5 6 1022.6 1022.6 0.2
14/10:00am 21.7 21.5 14.8 65 4.1 SE 9 11 5 6 1022.8 1022.8 0.2
14/09:30am 21.1 20.4 14.3 65 4.0 SSE 11 13 6 7 1023.1 1023.1 0.2
14/09:00am 20.8 20.7 14.9 69 3.5 S 9 11 5 6 1023.1 1023.1 0.6
14/08:30am 20.5 19.8 15.5 73 3.0 SSE 13 15 7 8 1023.0 1023.0 0.6
14/08:00am 19.1 19.5 15.4 79 2.2 S 7 11 4 6 1022.9 1022.9 0.6
14/07:30am 17.1 16.9 14.7 86 1.4 SW 9 11 5 6 1023.0 1023.0 0.6
14/07:00am 15.7 15.5 14.7 94 0.6 SW 9 13 5 7 1022.8 1022.8 0.6
14/06:30am 15.1 14.6 14.8 98 0.2 SW 11 15 6 8 1022.7 1022.7 0.6
14/06:00am 14.6 13.9 14.4 99 0.1 SW 11 13 6 7 1022.4 1022.4 0.6
14/05:30am 14.5 13.8 14.3 99 0.1 WSW 11 13 6 7 1022.0 1022.0 0.6
14/05:00am 14.3 13.1 14.1 99 0.1 SW 13 15 7 8 1021.8 1021.8 0.6
14/04:30am 14.5 13.8 14.3 99 0.1 SW 11 13 6 7 1021.6 1021.6 0.6
14/04:00am 14.6 14.3 14.4 99 0.1 SW 9 11 5 6 1021.6 1021.6 0.6
14/03:30am 14.7 14.0 14.2 97 0.3 SW 11 15 6 8 1021.6 1021.6 0.6
14/03:00am 15.1 14.6 14.8 98 0.2 SW 11 13 6 7 1021.9 1021.9 0.6
14/02:30am 15.2 14.3 14.9 98 0.2 SW 13 15 7 8 1022.3 1022.3 0.6
14/02:00am 15.3 14.5 15.0 98 0.2 SW 13 15 7 8 1022.6 1022.6 0.6
14/01:30am 15.5 15.1 15.3 99 0.1 SW 11 15 6 8 1022.9 1022.9 0.6
14/01:00am 15.6 15.3 15.4 99 0.1 SW 11 13 6 7 1023.1 1023.1 0.6
14/12:30am 15.8 15.9 15.6 99 0.1 WSW 9 13 5 7 1023.3 1023.3 0.6
14/12:00am 15.6 15.3 15.4 99 0.1 SSW 11 15 6 8 1023.5 1023.5 0.6
 
Date/Time
EST
Temp
°C
App
Temp
°C
Dew
Point
Rel
Hum
%
Delta-T
°C
Wind Press
QNH
hPa
Press
MSL
hPa
Rain
since 9 am
mm
Dir
 
Spd
km/h
Gust
km/h
Spd
kts
Gust
kts
13/11:30pm 15.7 15.3 15.1 96 0.3 SW 11 13 6 7 1023.6 1023.6 0.6
13/11:00pm 15.9 16.1 14.8 93 0.6 SW 7 7 4 4 1023.5 1023.5 0.6
13/10:30pm 16.4 16.4 15.1 92 0.8 SW 9 13 5 7 1023.8 1023.8 0.6
13/10:00pm 16.7 16.4 15.4 92 0.8 WSW 11 15 6 8 1024.3 1024.3 0.6
13/09:30pm 17.1 16.3 15.1 88 1.2 SSW 13 15 7 8 1024.6 1024.6 0.2
13/09:00pm 16.8 17.0 14.3 85 1.4 NNE 6 7 3 4 1024.5 1024.5 0.0
13/08:30pm 17.4 17.1 14.3 82 1.8 NNE 9 11 5 6 1024.4 1024.4 0.0
13/08:00pm 18.3 17.8 15.0 81 1.9 ENE 11 15 6 8 1024.4 1024.4 0.0
13/07:30pm 18.6 17.7 14.9 79 2.2 ENE 13 17 7 9 1024.3 1024.3 0.0
13/07:00pm 18.7 16.7 15.0 79 2.1 ENE 19 26 10 14 1024.1 1024.1 0.0
13/06:30pm 19.0 15.9 14.5 75 2.6 E 24 30 13 16 1023.6 1023.6 0.0
13/06:00pm 18.9 14.4 15.0 78 2.3 E 32 35 17 19 1023.2 1023.2 0.0
13/05:30pm 18.9 14.5 14.2 74 2.7 ESE 30 33 16 18 1022.8 1022.8 0.0
13/05:00pm 19.1 13.6 14.8 76 2.5 ESE 37 41 20 22 1022.6 1022.6 0.0
13/04:30pm 19.7 14.9 15.6 77 2.4 ESE 35 41 19 22 1022.4 1022.4 0.0
13/04:00pm 20.3 18.0 15.7 75 2.7 SE 22 26 12 14 1022.3 1022.3 0.0
13/03:30pm 20.7 18.7 15.0 70 3.4 SE 19 22 10 12 1022.2 1022.2 0.0
13/03:00pm 20.6 18.4 14.3 67 3.7 SE 19 22 10 12 1022.3 1022.3 0.0

Other Formats:

Comma delimited format used in spreadsheet applications
http://www.bom.gov.au/fwo/IDQ60801/IDQ60801.94580.axf

JavaScript Object Notation format (JSON) in row-major order
http://www.bom.gov.au/fwo/IDQ60801/IDQ60801.94580.json